Have a Safe July 4th! 

Flight Track Log - Related Links

Times and Time Zones

All times are in EDT time to prevent confusion due to time zone crossing. See the UAL3773 flight status page for this flight to view local times or setup timezone preferences in your user account.

Time Position Orientation Groundspeed Altitude Reporting Facility
EDT Latitude Longitude Course Direction KTS MPH feet Rate Location/Type
Thu 04:17:18 PM 38.9333 -77.5667 288° West 224 258 2,400  Level Potomac TRACON
Thu 04:18:19 PM 38.9167 -77.6500 256° West 260 299 4,800 2,516 Climbing Potomac TRACON
Thu 04:18:51 PM 38.8969 -77.7014 244° Southwest 282 325 6,300 2,870 Climbing Washington Center
Thu 04:19:51 PM 38.8581 -77.7775 237° Southwest 271 312 9,200 2,550 Climbing Washington Center
Thu 04:20:51 PM 38.8211 -77.8619 241° Southwest 271 312 11,400 2,150 Climbing Washington Center
Thu 04:21:51 PM 38.8317 -77.9661 277° West 276 318 13,500 1,550 Climbing Washington Center
Thu 04:22:00 PM 38.8431 -78.1724 288° West  Level FlightAware Approximate
Thu 04:22:51 PM 38.8439 -78.0864 277° West 325 374 14,500  Level Washington Center
Thu 04:23:51 PM 38.8536 -78.2119 276° West 355 409 16,200 1,950 Climbing Washington Center
Thu 04:24:51 PM 38.8528 -78.3425 270° West 367 422 18,400 1,900 Climbing Washington Center
Thu 04:25:51 PM 38.8519 -78.4706 270° West 367 422 20,000 1,750 Climbing Washington Center
Thu 04:26:51 PM 38.8547 -78.6067 272° West 367 422 21,900 1,650 Climbing Washington Center
Thu 04:27:51 PM 38.8514 -78.7344 268° West 372 428 23,300 1,350 Climbing Washington Center
Thu 04:28:51 PM 38.8483 -78.8542 268° West 367 422 24,600 1,250 Climbing Washington Center
Thu 04:29:51 PM 38.8422 -78.9953 267° West 362 417 25,800 1,250 Climbing Washington Center
Thu 04:30:51 PM 38.8469 -79.1233 273° West 372 428 27,100 1,100 Climbing Washington Center
Thu 04:31:51 PM 38.8428 -79.2644 268° West 390 449 28,000 1,200 Climbing Washington Center
Thu 04:32:51 PM 38.8400 -79.4189 269° West 397 457 29,500 1,200 Climbing Washington Center
Thu 04:33:51 PM 38.8375 -79.5628 269° West 402 463 30,400 1,050 Climbing Washington Center
Thu 04:34:51 PM 38.8350 -79.6986 269° West 402 463 31,600 1,100 Climbing Washington Center
Thu 04:35:51 PM 38.8306 -79.8236 267° West 402 463 32,600 850 Climbing Washington Center
Thu 04:36:51 PM 38.8256 -79.9619 267° West 402 463 33,300 939 Climbing Washington Center
Thu 04:39:09 PM 38.8156 -80.2928 268° West 395 455 35,700 810 Climbing Indianapolis Center
Thu 04:40:11 PM 38.8114 -80.4319 268° West 391 450 36,000 145 Climbing Indianapolis Center
Thu 04:41:13 PM 38.8072 -80.5747 268° West 402 463 36,000  Level Indianapolis Center
Thu 04:42:15 PM 38.8019 -80.7256 267° West 420 483 36,000  Level Indianapolis Center
Thu 04:43:17 PM 38.7983 -80.8733 268° West 418 481 36,000  Level Indianapolis Center
Thu 04:44:19 PM 38.7933 -81.0206 268° West 414 476 36,000  Level Indianapolis Center
Thu 04:45:21 PM 38.7881 -81.1942 268° West 409 471 36,000  Level Indianapolis Center
Thu 04:46:24 PM 38.7825 -81.3394 267° West 410 472 36,000  Level Indianapolis Center
Thu 04:47:26 PM 38.7767 -81.4956 267° West 411 473 36,000  Level Indianapolis Center
Thu 04:48:28 PM 38.7711 -81.6428 267° West 414 476 36,000  Level Indianapolis Center
Thu 04:49:30 PM 38.7650 -81.7978 267° West 412 474 36,000  Level Indianapolis Center
Thu 04:50:32 PM 38.7592 -81.9425 267° West 409 471 36,000  Level Indianapolis Center
Thu 04:51:34 PM 38.7528 -82.0886 267° West 411 473 36,000  Level Indianapolis Center
Thu 04:52:36 PM 38.7475 -82.2336 267° West 410 472 36,000  Level Indianapolis Center
Thu 04:53:38 PM 38.7422 -82.3789 267° West 408 470 36,000  Level Indianapolis Center
Thu 04:54:40 PM 38.7361 -82.5514 267° West 406 467 36,000  Level Indianapolis Center
Thu 04:55:42 PM 38.7289 -82.6958 266° West 405 466 36,000  Level Indianapolis Center
Thu 04:56:44 PM 38.7228 -82.8406 267° West 406 467 36,000  Level Indianapolis Center
Thu 04:57:46 PM 38.7164 -82.9850 267° West 406 467 36,000  Level Indianapolis Center
Thu 04:58:48 PM 38.7100 -83.1294 267° West 407 468 36,000  Level Indianapolis Center
Thu 04:59:50 PM 38.7031 -83.2847 267° West 402 463 36,000  Level Indianapolis Center
Thu 05:00:52 PM 38.6956 -83.4269 266° West 397 457 36,000 -48 Level Indianapolis Center
Thu 05:01:55 PM 38.6889 -83.5658 267° West 389 448 35,900  Descending Indianapolis Center
Thu 05:02:57 PM 38.6819 -83.7050 266° West 388 447 36,000 48 Climbing Indianapolis Center
Thu 05:03:59 PM 38.6747 -83.8403 266° West 380 437 36,000  Level Indianapolis Center
Thu 05:05:01 PM 38.6936 -84.0000 279° West 386 444 36,000  Level Indianapolis Center
Thu 05:06:03 PM 38.7144 -84.1369 281° West 388 447 36,000  Level Indianapolis Center
Thu 05:07:05 PM 38.7350 -84.2725 281° West 385 443 36,000  Level Indianapolis Center
Thu 05:08:07 PM 38.7550 -84.4086 281° West 384 442 36,000  Level Indianapolis Center
Thu 05:09:09 PM 38.7767 -84.5539 281° West 389 448 36,000  Level Indianapolis Center
Thu 05:10:11 PM 38.7967 -84.6928 281° West 395 455 36,000  Level Indianapolis Center
Thu 05:11:13 PM 38.8169 -84.8336 281° West 400 460 36,000  Level Indianapolis Center
Thu 05:12:15 PM 38.8397 -84.9908 281° West 404 465 36,000  Level Indianapolis Center
Thu 05:13:17 PM 38.8592 -85.1317 280° West 401 461 36,000  Level Indianapolis Center
Thu 05:14:19 PM 38.8792 -85.2747 280° West 405 466 36,000  Level Indianapolis Center
Thu 05:15:21 PM 38.8992 -85.4189 280° West 408 470 36,000  Level Indianapolis Center
Thu 05:16:23 PM 38.9183 -85.5611 280° West 406 467 36,000  Level Indianapolis Center
Thu 05:17:26 PM 38.9389 -85.7036 281° West 405 466 36,000  Level Indianapolis Center
Thu 05:18:28 PM 38.9617 -85.8744 280° West 404 465 36,000  Level Indianapolis Center
Thu 05:19:30 PM 38.9811 -86.0164 280° West 403 464 36,000  Level Indianapolis Center
Thu 05:20:32 PM 39.0003 -86.1594 280° West 405 466 36,000  Level Indianapolis Center
Thu 05:21:34 PM 39.0189 -86.3025 280° West 406 467 36,000  Level Indianapolis Center
Thu 05:22:36 PM 39.0383 -86.4456 280° West 406 467 36,000  Level Indianapolis Center
Thu 05:23:38 PM 39.0561 -86.5892 279° West 407 468 36,000  Level Indianapolis Center
Thu 05:24:40 PM 39.0789 -86.7628 280° West 410 472 36,000  Level Indianapolis Center
Thu 05:25:42 PM 39.0964 -86.9094 279° West 413 475 36,000  Level Indianapolis Center
Thu 05:26:44 PM 39.1150 -87.0561 279° West 414 476 36,000  Level Indianapolis Center
Thu 05:27:46 PM 39.1328 -87.2011 279° West 412 474 36,000  Level Indianapolis Center
Thu 05:28:48 PM 39.1508 -87.3494 279° West 416 479 36,000  Level Indianapolis Center
Thu 05:29:50 PM 39.1694 -87.4961 279° West 416 479 36,000  Level Indianapolis Center
Thu 05:30:52 PM 39.1858 -87.6431 278° West 414 476 36,000  Level Indianapolis Center
Thu 05:31:54 PM 39.2061 -87.8178 279° West 412 474 36,000  Level Indianapolis Center
Thu 05:32:29 PM 39.2119 -87.8786 277° West 412 474 36,000  Level Kansas City Center
Thu 05:33:29 PM 39.2303 -88.0244 279° West 412 474 36,000  Level Kansas City Center
Thu 05:34:33 PM 39.2494 -88.1994 278° West 411 473 36,000  Level Kansas City Center
Thu 05:35:33 PM 39.2658 -88.3478 278° West 415 478 36,000  Level Kansas City Center
Thu 05:36:37 PM 39.2828 -88.4944 279° West 414 476 36,000  Level Kansas City Center
Thu 05:37:37 PM 39.2975 -88.6314 278° West 415 478 36,000  Level Kansas City Center
Thu 05:38:38 PM 39.3128 -88.7786 278° West 416 479 36,000  Level Kansas City Center
Thu 05:39:42 PM 39.3328 -88.9558 278° West 417 480 36,000  Level Kansas City Center
Thu 05:40:43 PM 39.3489 -89.1019 278° West 414 476 36,000  Level Kansas City Center
Thu 05:41:47 PM 39.3650 -89.2494 278° West 415 478 36,000  Level Kansas City Center
Thu 05:42:47 PM 39.3797 -89.3958 277° West 415 478 36,000  Level Kansas City Center
Thu 05:43:48 PM 39.3939 -89.5400 277° West 412 474 36,000  Level Kansas City Center
Thu 05:44:52 PM 39.4108 -89.7158 277° West 413 475 36,000  Level Kansas City Center
Thu 05:45:53 PM 39.4264 -89.8628 278° West 413 475 36,000  Level Kansas City Center
Thu 05:46:57 PM 39.4414 -90.0094 278° West 415 478 36,000  Level Kansas City Center
Thu 05:47:58 PM 39.4556 -90.1567 277° West 415 478 36,000  Level Kansas City Center
Thu 05:49:01 PM 39.4692 -90.3053 277° West 417 480 36,000  Level Kansas City Center
Thu 05:50:01 PM 39.4828 -90.4525 277° West 416 479 36,000  Level Kansas City Center
Thu 05:51:06 PM 39.5000 -90.6322 277° West 420 483 36,000  Level Kansas City Center
Thu 05:52:06 PM 39.5131 -90.7811 277° West 420 483 36,000  Level Kansas City Center
Thu 05:53:10 PM 39.5261 -90.9294 277° West 419 482 36,000  Level Kansas City Center
Thu 05:54:11 PM 39.5392 -91.0794 276° West 421 484 36,000  Level Kansas City Center
Thu 05:55:12 PM 39.5533 -91.2306 277° West 423 487 36,000  Level Kansas City Center
Thu 05:56:13 PM 39.5658 -91.3861 276° West 423 487 36,000  Level Kansas City Center
Thu 05:57:17 PM 39.5814 -91.5675 276° West 423 487 36,000  Level Kansas City Center
Thu 05:58:17 PM 39.5936 -91.7169 276° West 420 483 36,000  Level Kansas City Center
Thu 05:59:21 PM 39.6064 -91.8658 276° West 419 482 36,000  Level Kansas City Center
Thu 06:00:21 PM 39.6181 -92.0158 276° West 419 482 36,000  Level Kansas City Center
Thu 06:01:25 PM 39.6297 -92.1633 276° West 416 479 36,000  Level Kansas City Center
Thu 06:02:26 PM 39.6411 -92.3106 276° West 413 475 36,000 -639 Level Kansas City Center
Thu 06:03:27 PM 39.6542 -92.4886 275° West 412 474 34,700 -1,344 Descending Kansas City Center
Thu 06:04:31 PM 39.6536 -92.6353 270° West 410 472 33,200 -1,440 Descending Kansas City Center
Thu 06:05:32 PM 39.6514 -92.7844 269° West 411 473 31,700 -1,790 Descending Kansas City Center
Thu 06:06:35 PM 39.6486 -92.9433 269° West 429 494 29,500 -2,516 Descending Kansas City Center
Thu 06:07:36 PM 39.6456 -93.0919 269° West 416 479 26,500 -2,832 Descending Kansas City Center
Thu 06:08:40 PM 39.6433 -93.2306 269° West 391 450 23,600 -2,855 Descending Kansas City Center
Thu 06:09:40 PM 39.6403 -93.3883 269° West 371 427 20,600 -2,780 Descending Kansas City Center
Thu 06:10:43 PM 39.6369 -93.5183 268° West 367 422 17,900 -2,516 Descending Kansas City Center
Thu 06:11:44 PM 39.6378 -93.6453 271° West 355 409 15,400 -2,208 Descending Kansas City Center
Thu 06:12:48 PM 39.6339 -93.7694 268° West 343 395 13,300 -2,032 Descending Kansas City Center
Thu 06:13:48 PM 39.6194 -93.9014 262° West 334 384 11,200 -1,597 Descending Kansas City Center
Thu 06:14:52 PM 39.5575 -93.9886 227° Southwest 341 392 10,000 -581 Descending Kansas City Center
Thu 06:15:52 PM 39.4828 -94.0903 226° Southwest 347 399 10,000  Level Kansas City Center
Thu 06:16:57 PM 39.4208 -94.1767 227° Southwest 341 392 10,000 -571 Level Kansas City Center
Thu 06:17:58 PM 39.3644 -94.2533 226° Southwest 263 303 8,800 -1,426 Descending Kansas City Center
Thu 06:18:59 PM 39.3231 -94.3208 232° Southwest 252 290 7,100 -1,887 Descending Kansas City Center
Thu 06:20:02 PM 39.2831 -94.4039 238° Southwest 244 281 4,900 -1,500 Descending Kansas City Center
Thu 06:21:03 PM 39.2694 -94.4775 257° West 223 257 4,000 -787 Descending Kansas City Center
Thu 06:22:04 PM 39.2769 -94.5544 277° West 194 223 3,300 -768 Descending Kansas City Center
Thu 06:23:08 PM 39.2811 -94.6119 275° West 168 193 2,400 -774 Descending Kansas City Center
Thu 06:24:08 PM 39.2847 -94.6531 276° West 125 144 1,700 -677 Descending Kansas City Center
Thu 06:25:12 PM 39.2889 -94.7050 276° West 124 143 1,000 -656 Descending Kansas City Center
Thu 06:27:00 PM 39.2833 -94.7000 270° West  Level FlightAware Approximate

Login

Don't have an account? Register now (free) for customized features, flight alerts, and more!